PJ2ED TNCC-TNCC
Flight info
| Callsign | PJ2ED |
|---|---|
| Flight time | 0h 43m |
| Altitude | 2000 |
| Route | VFR AROUND THE ISLAND LEVEL FLIGHT TURNS |
| Aircraft | C172/L-G/C |
Departure
| Time | 2026-05-09 11:47 |
|---|---|
| Airport | Hato International Airport (TNCC) |
Arrival
| Time | 2026-05-09 12:30 |
|---|---|
| Airport | Hato International Airport (TNCC) |
| Time | Latitude | Longitude | Altitude | Speed | Heading |
|---|---|---|---|---|---|
| 2026-05-09 11:25 | 12.18500 | -68.95369 | 38 ft | 0 kts | 105° |
| 2026-05-09 11:34 | 12.18499 | -68.95369 | 38 ft | 0 kts | 105° |
| 2026-05-09 11:36 | 12.18499 | -68.95367 | 38 ft | 0 kts | 97° |
| 2026-05-09 11:37 | 12.18492 | -68.95362 | 38 ft | 1 kts | 189° |
| 2026-05-09 11:37 | 12.18491 | -68.95381 | 38 ft | 9 kts | 295° |
| 2026-05-09 11:37 | 12.18538 | -68.95442 | 38 ft | 11 kts | 335° |
| 2026-05-09 11:37 | 12.18595 | -68.95473 | 38 ft | 8 kts | 308° |
| 2026-05-09 11:38 | 12.18613 | -68.95520 | 38 ft | 7 kts | 278° |
| 2026-05-09 11:38 | 12.18627 | -68.95582 | 37 ft | 11 kts | 284° |
| 2026-05-09 11:38 | 12.18642 | -68.95650 | 37 ft | 9 kts | 280° |
| 2026-05-09 11:38 | 12.18656 | -68.95711 | 37 ft | 10 kts | 280° |
| 2026-05-09 11:39 | 12.18674 | -68.95808 | 37 ft | 16 kts | 289° |
| 2026-05-09 11:39 | 12.18697 | -68.95911 | 38 ft | 12 kts | 292° |
| 2026-05-09 11:39 | 12.18761 | -68.95947 | 38 ft | 11 kts | 16° |
| 2026-05-09 11:40 | 12.18789 | -68.95933 | 38 ft | 0 kts | 58° |
| 2026-05-09 11:45 | 12.18791 | -68.95930 | 38 ft | 1 kts | 45° |
| 2026-05-09 11:45 | 12.18816 | -68.95924 | 38 ft | 6 kts | 359° |
| 2026-05-09 11:46 | 12.18864 | -68.95889 | 37 ft | 12 kts | 75° |
| 2026-05-09 11:46 | 12.18866 | -68.95864 | 37 ft | 0 kts | 95° |
| 2026-05-09 11:46 | 12.18832 | -68.95718 | 36 ft | 46 kts | 109° |
| 2026-05-09 11:46 | 12.18791 | -68.95316 | 184 ft | 58 kts | 97° |
| 2026-05-09 11:47 | 12.18697 | -68.94908 | 440 ft | 64 kts | 99° |
| 2026-05-09 11:47 | 12.18587 | -68.94451 | 722 ft | 71 kts | 105° |
| 2026-05-09 11:47 | 12.18451 | -68.94001 | 1047 ft | 63 kts | 104° |
| 2026-05-09 11:47 | 12.18318 | -68.93496 | 1200 ft | 75 kts | 104° |
| 2026-05-09 11:48 | 12.18177 | -68.93003 | 1457 ft | 71 kts | 100° |
| 2026-05-09 11:48 | 12.18067 | -68.92501 | 1704 ft | 70 kts | 98° |
| 2026-05-09 11:48 | 12.17877 | -68.92023 | 1827 ft | 79 kts | 116° |
| 2026-05-09 11:48 | 12.17624 | -68.91513 | 1981 ft | 82 kts | 112° |
| 2026-05-09 11:49 | 12.17392 | -68.90966 | 2041 ft | 88 kts | 110° |
| 2026-05-09 11:49 | 12.17171 | -68.90368 | 2020 ft | 91 kts | 109° |
| 2026-05-09 11:49 | 12.16950 | -68.89768 | 2049 ft | 92 kts | 108° |
| 2026-05-09 11:49 | 12.16732 | -68.89134 | 2017 ft | 96 kts | 109° |
| 2026-05-09 11:50 | 12.16501 | -68.88499 | 2015 ft | 96 kts | 109° |
| 2026-05-09 11:50 | 12.16265 | -68.87863 | 2007 ft | 92 kts | 108° |
| 2026-05-09 11:50 | 12.16033 | -68.87245 | 2006 ft | 92 kts | 109° |
| 2026-05-09 11:50 | 12.15805 | -68.86633 | 1998 ft | 93 kts | 109° |
| 2026-05-09 11:51 | 12.15581 | -68.86011 | 1996 ft | 94 kts | 109° |
| 2026-05-09 11:51 | 12.15356 | -68.85389 | 1995 ft | 92 kts | 108° |
| 2026-05-09 11:51 | 12.15129 | -68.84773 | 2001 ft | 93 kts | 109° |
| 2026-05-09 11:51 | 12.14897 | -68.84154 | 1999 ft | 93 kts | 109° |
| 2026-05-09 11:52 | 12.14661 | -68.83542 | 2000 ft | 92 kts | 109° |
| 2026-05-09 11:52 | 12.14424 | -68.82935 | 1996 ft | 92 kts | 109° |
| 2026-05-09 11:52 | 12.14179 | -68.82315 | 2003 ft | 96 kts | 109° |
| 2026-05-09 11:52 | 12.13934 | -68.81672 | 2010 ft | 99 kts | 109° |
| 2026-05-09 11:53 | 12.13687 | -68.80988 | 1997 ft | 104 kts | 109° |
| 2026-05-09 11:53 | 12.13441 | -68.80312 | 1998 ft | 100 kts | 109° |
| 2026-05-09 11:53 | 12.13179 | -68.79668 | 1980 ft | 99 kts | 119° |
| 2026-05-09 11:53 | 12.12560 | -68.79322 | 1999 ft | 107 kts | 158° |
| 2026-05-09 11:54 | 12.11800 | -68.79484 | 2012 ft | 122 kts | 198° |
| 2026-05-09 11:54 | 12.11172 | -68.80172 | 1971 ft | 138 kts | 228° |
| 2026-05-09 11:54 | 12.10619 | -68.80935 | 2112 ft | 125 kts | 214° |
| 2026-05-09 11:54 | 12.09901 | -68.81153 | 2040 ft | 105 kts | 144° |
| 2026-05-09 11:55 | 12.09647 | -68.80584 | 2006 ft | 93 kts | 76° |
| 2026-05-09 11:56 | 12.11792 | -68.80793 | 2213 ft | 144 kts | 243° |
| 2026-05-09 11:56 | 12.11104 | -68.81370 | 2186 ft | 122 kts | 191° |
| 2026-05-09 11:56 | 12.10318 | -68.81684 | 2120 ft | 126 kts | 189° |
| 2026-05-09 11:57 | 12.09510 | -68.82023 | 2026 ft | 128 kts | 194° |
| 2026-05-09 11:57 | 12.08661 | -68.82326 | 1899 ft | 127 kts | 184° |
| 2026-05-09 11:57 | 12.07824 | -68.82520 | 1910 ft | 121 kts | 179° |
| 2026-05-09 11:57 | 12.07079 | -68.82343 | 1771 ft | 109 kts | 126° |
| 2026-05-09 11:58 | 12.07008 | -68.81677 | 1695 ft | 106 kts | 59° |
| 2026-05-09 11:58 | 12.07746 | -68.81413 | 1593 ft | 131 kts | 356° |
| 2026-05-09 11:58 | 12.08448 | -68.82065 | 1446 ft | 148 kts | 298° |
| 2026-05-09 11:58 | 12.08854 | -68.82995 | 1414 ft | 143 kts | 294° |
| 2026-05-09 11:59 | 12.09159 | -68.83954 | 1359 ft | 140 kts | 286° |
| 2026-05-09 11:59 | 12.09327 | -68.84931 | 1298 ft | 141 kts | 272° |
| 2026-05-09 11:59 | 12.08968 | -68.85761 | 1203 ft | 122 kts | 192° |
| 2026-05-09 11:59 | 12.08266 | -68.85656 | 1139 ft | 95 kts | 148° |
| 2026-05-09 12:00 | 12.07566 | -68.85514 | 943 ft | 107 kts | 162° |
| 2026-05-09 12:00 | 12.07375 | -68.85120 | 1011 ft | 84 kts | 52° |
| 2026-05-09 12:00 | 12.07965 | -68.85105 | 1015 ft | 100 kts | 348° |
| 2026-05-09 12:00 | 12.08621 | -68.85322 | 1034 ft | 99 kts | 5° |
| 2026-05-09 12:01 | 12.09251 | -68.85413 | 1184 ft | 87 kts | 8° |
| 2026-05-09 12:01 | 12.09886 | -68.85474 | 1219 ft | 93 kts | 8° |
| 2026-05-09 12:01 | 12.10533 | -68.85572 | 1326 ft | 94 kts | 0° |
| 2026-05-09 12:01 | 12.11166 | -68.85799 | 1437 ft | 100 kts | 347° |
| 2026-05-09 12:02 | 12.11754 | -68.86256 | 1512 ft | 108 kts | 331° |
| 2026-05-09 12:02 | 12.12299 | -68.86790 | 1642 ft | 110 kts | 319° |
| 2026-05-09 12:02 | 12.12801 | -68.87371 | 1773 ft | 110 kts | 319° |
| 2026-05-09 12:02 | 12.13320 | -68.87971 | 1903 ft | 114 kts | 319° |
| 2026-05-09 12:03 | 12.13579 | -68.88736 | 1945 ft | 122 kts | 250° |
| 2026-05-09 12:03 | 12.12976 | -68.89007 | 1796 ft | 101 kts | 129° |
| 2026-05-09 12:03 | 12.12690 | -68.88413 | 1846 ft | 92 kts | 108° |
| 2026-05-09 12:03 | 12.12493 | -68.87800 | 1848 ft | 91 kts | 109° |
| 2026-05-09 12:04 | 12.12271 | -68.87196 | 1888 ft | 87 kts | 108° |
| 2026-05-09 12:04 | 12.12036 | -68.86624 | 1882 ft | 88 kts | 115° |
| 2026-05-09 12:04 | 12.11946 | -68.86041 | 1840 ft | 96 kts | 68° |
| 2026-05-09 12:04 | 12.12593 | -68.85713 | 1807 ft | 120 kts | 4° |
| 2026-05-09 12:05 | 12.13235 | -68.86315 | 1708 ft | 145 kts | 285° |
| 2026-05-09 12:05 | 12.12997 | -68.87210 | 1737 ft | 122 kts | 217° |
| 2026-05-09 12:05 | 12.12302 | -68.87449 | 1742 ft | 101 kts | 151° |
| 2026-05-09 12:05 | 12.11996 | -68.86925 | 1678 ft | 94 kts | 79° |
| 2026-05-09 12:06 | 12.12573 | -68.86563 | 1608 ft | 122 kts | 7° |
| 2026-05-09 12:06 | 12.13357 | -68.86523 | 1589 ft | 106 kts | 39° |
| 2026-05-09 12:06 | 12.14048 | -68.86281 | 1655 ft | 110 kts | 5° |
| 2026-05-09 12:06 | 12.14573 | -68.86933 | 1541 ft | 142 kts | 268° |
| 2026-05-09 12:07 | 12.14158 | -68.87647 | 1644 ft | 108 kts | 190° |
| 2026-05-09 12:07 | 12.13547 | -68.87496 | 1578 ft | 90 kts | 120° |
| 2026-05-09 12:07 | 12.13305 | -68.86919 | 1579 ft | 85 kts | 98° |
| 2026-05-09 12:07 | 12.13573 | -68.86350 | 1482 ft | 102 kts | 49° |
| 2026-05-09 12:08 | 12.14257 | -68.86194 | 1545 ft | 117 kts | 356° |
| 2026-05-09 12:08 | 12.14808 | -68.86849 | 1567 ft | 127 kts | 276° |
| 2026-05-09 12:08 | 12.14696 | -68.87712 | 1578 ft | 128 kts | 244° |
| 2026-05-09 12:08 | 12.14438 | -68.88593 | 1571 ft | 123 kts | 235° |
| 2026-05-09 12:09 | 12.13850 | -68.89015 | 1573 ft | 103 kts | 166° |
| 2026-05-09 12:09 | 12.13377 | -68.88647 | 1613 ft | 86 kts | 104° |
| 2026-05-09 12:09 | 12.13070 | -68.88117 | 1669 ft | 92 kts | 137° |
| 2026-05-09 12:10 | 12.11658 | -68.87398 | 1703 ft | 93 kts | 66° |
| 2026-05-09 12:10 | 12.11968 | -68.87073 | 1712 ft | 97 kts | 50° |
| 2026-05-09 12:10 | 12.12532 | -68.86675 | 1728 ft | 101 kts | 36° |
| 2026-05-09 12:11 | 12.13234 | -68.86453 | 1677 ft | 107 kts | 30° |
| 2026-05-09 12:11 | 12.13779 | -68.86048 | 1705 ft | 89 kts | 53° |
| 2026-05-09 12:11 | 12.14452 | -68.85868 | 1591 ft | 122 kts | 2° |
| 2026-05-09 12:11 | 12.15116 | -68.86363 | 1678 ft | 134 kts | 299° |
| 2026-05-09 12:12 | 12.15025 | -68.87299 | 1599 ft | 127 kts | 217° |
| 2026-05-09 12:12 | 12.14340 | -68.87547 | 1642 ft | 100 kts | 169° |
| 2026-05-09 12:12 | 12.13659 | -68.87665 | 1724 ft | 94 kts | 172° |
| 2026-05-09 12:12 | 12.13030 | -68.87683 | 1841 ft | 89 kts | 169° |
| 2026-05-09 12:13 | 12.12406 | -68.87709 | 1942 ft | 89 kts | 169° |
| 2026-05-09 12:13 | 12.11783 | -68.87741 | 1995 ft | 94 kts | 170° |
| 2026-05-09 12:13 | 12.11103 | -68.87754 | 2013 ft | 102 kts | 169° |
| 2026-05-09 12:13 | 12.10371 | -68.87769 | 2016 ft | 106 kts | 168° |
| 2026-05-09 12:14 | 12.09637 | -68.87817 | 2012 ft | 104 kts | 170° |
| 2026-05-09 12:14 | 12.08907 | -68.87860 | 2006 ft | 105 kts | 169° |
| 2026-05-09 12:14 | 12.08167 | -68.87907 | 2006 ft | 108 kts | 171° |
| 2026-05-09 12:14 | 12.07458 | -68.87807 | 1967 ft | 100 kts | 143° |
| 2026-05-09 12:15 | 12.06848 | -68.87481 | 1906 ft | 102 kts | 147° |
| 2026-05-09 12:15 | 12.06269 | -68.87045 | 1744 ft | 103 kts | 125° |
| 2026-05-09 12:15 | 12.05879 | -68.86455 | 1676 ft | 99 kts | 116° |
| 2026-05-09 12:15 | 12.05663 | -68.85789 | 1609 ft | 97 kts | 101° |
| 2026-05-09 12:16 | 12.05419 | -68.85168 | 1569 ft | 93 kts | 118° |
| 2026-05-09 12:16 | 12.05254 | -68.84574 | 1566 ft | 91 kts | 82° |
| 2026-05-09 12:16 | 12.05777 | -68.84203 | 1595 ft | 114 kts | 11° |
| 2026-05-09 12:16 | 12.06570 | -68.84593 | 1679 ft | 133 kts | 318° |
| 2026-05-09 12:17 | 12.06894 | -68.85498 | 1679 ft | 145 kts | 263° |
| 2026-05-09 12:17 | 12.06498 | -68.86334 | 1758 ft | 120 kts | 201° |
| 2026-05-09 12:17 | 12.05757 | -68.86702 | 1613 ft | 121 kts | 190° |
| 2026-05-09 12:17 | 12.04948 | -68.86947 | 1494 ft | 119 kts | 180° |
| 2026-05-09 12:18 | 12.04157 | -68.87024 | 1490 ft | 108 kts | 167° |
| 2026-05-09 12:18 | 12.03414 | -68.87018 | 1414 ft | 115 kts | 179° |
| 2026-05-09 12:18 | 12.02777 | -68.87580 | 1414 ft | 135 kts | 238° |
| 2026-05-09 12:18 | 12.02941 | -68.88505 | 1311 ft | 137 kts | 328° |
| 2026-05-09 12:19 | 12.03789 | -68.88569 | 1180 ft | 119 kts | 23° |
| 2026-05-09 12:19 | 12.04584 | -68.88425 | 1190 ft | 110 kts | 20° |
| 2026-05-09 12:19 | 12.05308 | -68.88329 | 1255 ft | 103 kts | 17° |
| 2026-05-09 12:19 | 12.06037 | -68.88254 | 1251 ft | 106 kts | 12° |
| 2026-05-09 12:20 | 12.06808 | -68.88436 | 1203 ft | 124 kts | 332° |
| 2026-05-09 12:20 | 12.06995 | -68.89085 | 1446 ft | 97 kts | 216° |
| 2026-05-09 12:20 | 12.06432 | -68.89188 | 1399 ft | 89 kts | 157° |
| 2026-05-09 12:20 | 12.05816 | -68.89135 | 1476 ft | 92 kts | 178° |
| 2026-05-09 12:21 | 12.05180 | -68.89357 | 1475 ft | 106 kts | 196° |
| 2026-05-09 12:21 | 12.04849 | -68.90103 | 1397 ft | 135 kts | 285° |
| 2026-05-09 12:21 | 12.05450 | -68.90611 | 1496 ft | 110 kts | 359° |
| 2026-05-09 12:21 | 12.06202 | -68.90844 | 1469 ft | 115 kts | 355° |
| 2026-05-09 12:22 | 12.06986 | -68.91067 | 1431 ft | 118 kts | 357° |
| 2026-05-09 12:22 | 12.07803 | -68.91269 | 1409 ft | 119 kts | 355° |
| 2026-05-09 12:22 | 12.08542 | -68.91582 | 1449 ft | 120 kts | 337° |
| 2026-05-09 12:22 | 12.09150 | -68.92240 | 1367 ft | 132 kts | 300° |
| 2026-05-09 12:23 | 12.09472 | -68.93101 | 1366 ft | 130 kts | 291° |
| 2026-05-09 12:23 | 12.09662 | -68.94003 | 1354 ft | 130 kts | 277° |
| 2026-05-09 12:23 | 12.09906 | -68.94903 | 1325 ft | 133 kts | 294° |
| 2026-05-09 12:23 | 12.10379 | -68.95710 | 1311 ft | 130 kts | 314° |
| 2026-05-09 12:24 | 12.10942 | -68.96435 | 1317 ft | 128 kts | 310° |
| 2026-05-09 12:24 | 12.11434 | -68.97197 | 1305 ft | 131 kts | 302° |
| 2026-05-09 12:24 | 12.11827 | -68.98042 | 1283 ft | 131 kts | 300° |
| 2026-05-09 12:24 | 12.12286 | -68.98861 | 1218 ft | 136 kts | 308° |
| 2026-05-09 12:25 | 12.12773 | -68.99682 | 1195 ft | 136 kts | 308° |
| 2026-05-09 12:25 | 12.13426 | -69.00261 | 1168 ft | 115 kts | 4° |
| 2026-05-09 12:25 | 12.14214 | -69.00427 | 1157 ft | 115 kts | 357° |
| 2026-05-09 12:25 | 12.14970 | -69.00730 | 1151 ft | 120 kts | 343° |
| 2026-05-09 12:26 | 12.15674 | -69.00712 | 1251 ft | 100 kts | 12° |
| 2026-05-09 12:26 | 12.16223 | -69.01154 | 1347 ft | 114 kts | 283° |
| 2026-05-09 12:26 | 12.15973 | -69.01878 | 1375 ft | 101 kts | 207° |
| 2026-05-09 12:26 | 12.15383 | -69.01888 | 1232 ft | 99 kts | 140° |
| 2026-05-09 12:27 | 12.14777 | -69.01540 | 1212 ft | 96 kts | 139° |
| 2026-05-09 12:27 | 12.14255 | -69.01184 | 1253 ft | 89 kts | 130° |
| 2026-05-09 12:27 | 12.13893 | -69.00733 | 1327 ft | 75 kts | 105° |
| 2026-05-09 12:27 | 12.13894 | -69.00240 | 1412 ft | 73 kts | 72° |
| 2026-05-09 12:28 | 12.14269 | -68.99798 | 1361 ft | 94 kts | 53° |
| 2026-05-09 12:28 | 12.14801 | -68.99385 | 1369 ft | 100 kts | 44° |
| 2026-05-09 12:28 | 12.15438 | -68.99020 | 1262 ft | 110 kts | 37° |
| 2026-05-09 12:28 | 12.16162 | -68.98743 | 1303 ft | 113 kts | 22° |
| 2026-05-09 12:29 | 12.16977 | -68.98774 | 1223 ft | 123 kts | 13° |
| 2026-05-09 12:29 | 12.17778 | -68.98803 | 1310 ft | 104 kts | 16° |
| 2026-05-09 12:29 | 12.18442 | -68.98776 | 1292 ft | 88 kts | 22° |
| 2026-05-09 12:29 | 12.19042 | -68.98627 | 1102 ft | 89 kts | 39° |
| 2026-05-09 12:30 | 12.19280 | -68.98130 | 830 ft | 82 kts | 91° |
| 2026-05-09 12:30 | 12.19240 | -68.97540 | 472 ft | 79 kts | 108° |
| 2026-05-09 12:30 | 12.19037 | -68.96658 | 117 ft | 46 kts | 106° |
| 2026-05-09 12:31 | 12.18988 | -68.96385 | 58 ft | 35 kts | 93° |
| 2026-05-09 12:31 | 12.18909 | -68.95827 | 226 ft | 48 kts | 108° |
| 2026-05-09 12:31 | 12.18832 | -68.95496 | 372 ft | 45 kts | 106° |
| 2026-05-09 12:32 | 12.18734 | -68.95159 | 442 ft | 50 kts | 102° |
| 2026-05-09 12:32 | 12.18634 | -68.94735 | 452 ft | 73 kts | 100° |
| 2026-05-09 12:32 | 12.18598 | -68.94208 | 625 ft | 77 kts | 95° |
| 2026-05-09 12:32 | 12.18774 | -68.93701 | 739 ft | 96 kts | 49° |
| 2026-05-09 12:33 | 12.19398 | -68.93394 | 775 ft | 109 kts | 24° |
| 2026-05-09 12:33 | 12.20209 | -68.93493 | 792 ft | 124 kts | 352° |
| 2026-05-09 12:33 | 12.21042 | -68.93808 | 800 ft | 133 kts | 332° |
| 2026-05-09 12:33 | 12.21482 | -68.94646 | 855 ft | 133 kts | 277° |
| 2026-05-09 12:34 | 12.21639 | -68.95583 | 914 ft | 138 kts | 278° |
| 2026-05-09 12:34 | 12.21739 | -68.96576 | 976 ft | 138 kts | 275° |
| 2026-05-09 12:34 | 12.21798 | -68.97467 | 1149 ft | 113 kts | 269° |
| 2026-05-09 12:34 | 12.21621 | -68.98172 | 1243 ft | 95 kts | 219° |
| 2026-05-09 12:35 | 12.21155 | -68.98590 | 1282 ft | 89 kts | 198° |
| 2026-05-09 12:35 | 12.20614 | -68.98871 | 1328 ft | 90 kts | 182° |
| 2026-05-09 12:35 | 12.20022 | -68.98951 | 1390 ft | 85 kts | 156° |
| 2026-05-09 12:35 | 12.19563 | -68.98690 | 1201 ft | 72 kts | 126° |
| 2026-05-09 12:36 | 12.19351 | -68.98249 | 887 ft | 67 kts | 108° |
| 2026-05-09 12:36 | 12.19257 | -68.97785 | 618 ft | 65 kts | 107° |
| 2026-05-09 12:36 | 12.19166 | -68.97348 | 399 ft | 62 kts | 104° |
| 2026-05-09 12:36 | 12.19081 | -68.96930 | 235 ft | 58 kts | 102° |
| 2026-05-09 12:37 | 12.19011 | -68.96544 | 113 ft | 52 kts | 100° |
| 2026-05-09 12:37 | 12.18943 | -68.96206 | 53 ft | 44 kts | 105° |
| 2026-05-09 12:37 | 12.18891 | -68.95936 | 43 ft | 37 kts | 103° |
| 2026-05-09 12:37 | 12.18833 | -68.95703 | 36 ft | 29 kts | 105° |
| 2026-05-09 12:38 | 12.18792 | -68.95523 | 35 ft | 21 kts | 100° |
| 2026-05-09 12:38 | 12.18751 | -68.95405 | 37 ft | 16 kts | 147° |
| 2026-05-09 12:38 | 12.18665 | -68.95407 | 37 ft | 12 kts | 187° |
| 2026-05-09 12:38 | 12.18586 | -68.95457 | 38 ft | 15 kts | 187° |
| 2026-05-09 12:39 | 12.18513 | -68.95401 | 38 ft | 14 kts | 116° |
| 2026-05-09 12:39 | 12.18499 | -68.95363 | 38 ft | 0 kts | 103° |